sensor_id;sensor_type;location;lat;lon;timestamp;P1;durP1;ratioP1;P2;durP2;ratioP2
46391;SDS011;32098;49.448;7.904;2024-03-02T00:00:36;2.43;;;1.40;;
46391;SDS011;32098;49.448;7.904;2024-03-02T00:03:03;1.93;;;1.70;;
46391;SDS011;32098;49.448;7.904;2024-03-02T00:05:30;2.03;;;1.40;;
46391;SDS011;32098;49.448;7.904;2024-03-02T00:07:57;2.17;;;1.73;;
46391;SDS011;32098;49.448;7.904;2024-03-02T00:10:25;1.57;;;1.47;;
46391;SDS011;32098;49.448;7.904;2024-03-02T00:12:56;1.80;;;1.70;;
46391;SDS011;32098;49.448;7.904;2024-03-02T00:15:40;2.20;;;1.63;;
46391;SDS011;32098;49.448;7.904;2024-03-02T00:18:11;3.40;;;1.80;;
46391;SDS011;32098;49.448;7.904;2024-03-02T00:20:39;2.47;;;2.17;;
46391;SDS011;32098;49.448;7.904;2024-03-02T00:23:07;2.97;;;2.10;;
46391;SDS011;32098;49.448;7.904;2024-03-02T00:25:39;2.50;;;2.00;;
46391;SDS011;32098;49.448;7.904;2024-03-02T00:28:11;2.33;;;1.70;;
46391;SDS011;32098;49.448;7.904;2024-03-02T00:30:55;2.60;;;1.63;;
46391;SDS011;32098;49.448;7.904;2024-03-02T00:33:25;2.37;;;1.87;;
46391;SDS011;32098;49.448;7.904;2024-03-02T00:35:54;3.07;;;1.70;;
46391;SDS011;32098;49.448;7.904;2024-03-02T00:38:21;1.80;;;1.57;;
46391;SDS011;32098;49.448;7.904;2024-03-02T00:40:48;2.13;;;1.87;;
46391;SDS011;32098;49.448;7.904;2024-03-02T00:45:54;1.87;;;1.67;;
46391;SDS011;32098;49.448;7.904;2024-03-02T00:48:21;2.33;;;2.13;;
46391;SDS011;32098;49.448;7.904;2024-03-02T00:50:50;2.73;;;2.13;;
46391;SDS011;32098;49.448;7.904;2024-03-02T00:53:20;2.43;;;1.80;;
46391;SDS011;32098;49.448;7.904;2024-03-02T00:55:53;2.20;;;1.90;;
46391;SDS011;32098;49.448;7.904;2024-03-02T00:58:19;5.27;;;2.00;;
46391;SDS011;32098;49.448;7.904;2024-03-02T01:00:46;2.60;;;1.83;;
46391;SDS011;32098;49.448;7.904;2024-03-02T01:03:13;2.67;;;2.03;;
46391;SDS011;32098;49.448;7.904;2024-03-02T01:05:43;2.90;;;1.80;;
46391;SDS011;32098;49.448;7.904;2024-03-02T01:08:10;2.20;;;1.63;;
46391;SDS011;32098;49.448;7.904;2024-03-02T01:10:37;3.50;;;1.97;;
46391;SDS011;32098;49.448;7.904;2024-03-02T01:13:04;2.30;;;1.77;;
46391;SDS011;32098;49.448;7.904;2024-03-02T01:15:30;2.17;;;1.90;;
46391;SDS011;32098;49.448;7.904;2024-03-02T01:17:57;4.10;;;1.87;;
46391;SDS011;32098;49.448;7.904;2024-03-02T01:20:25;1.87;;;1.67;;
46391;SDS011;32098;49.448;7.904;2024-03-02T01:22:52;2.20;;;1.53;;
46391;SDS011;32098;49.448;7.904;2024-03-02T01:25:18;2.83;;;1.70;;
46391;SDS011;32098;49.448;7.904;2024-03-02T01:27:45;2.10;;;1.80;;
46391;SDS011;32098;49.448;7.904;2024-03-02T01:30:15;3.37;;;2.00;;
46391;SDS011;32098;49.448;7.904;2024-03-02T01:32:42;1.60;;;1.50;;
46391;SDS011;32098;49.448;7.904;2024-03-02T01:35:09;3.10;;;2.03;;
46391;SDS011;32098;49.448;7.904;2024-03-02T01:37:36;2.10;;;1.77;;
46391;SDS011;32098;49.448;7.904;2024-03-02T01:40:03;2.30;;;1.93;;
46391;SDS011;32098;49.448;7.904;2024-03-02T01:42:38;2.40;;;1.70;;
46391;SDS011;32098;49.448;7.904;2024-03-02T01:45:05;2.20;;;1.97;;
46391;SDS011;32098;49.448;7.904;2024-03-02T01:47:33;2.77;;;1.80;;
46391;SDS011;32098;49.448;7.904;2024-03-02T01:50:01;4.03;;;2.03;;
46391;SDS011;32098;49.448;7.904;2024-03-02T01:52:27;2.20;;;1.90;;
46391;SDS011;32098;49.448;7.904;2024-03-02T01:54:54;2.83;;;2.10;;
46391;SDS011;32098;49.448;7.904;2024-03-02T01:57:21;2.40;;;1.93;;
46391;SDS011;32098;49.448;7.904;2024-03-02T01:59:48;2.67;;;2.17;;
46391;SDS011;32098;49.448;7.904;2024-03-02T02:02:17;3.27;;;2.10;;
46391;SDS011;32098;49.448;7.904;2024-03-02T02:04:43;2.73;;;2.43;;
46391;SDS011;32098;49.448;7.904;2024-03-02T02:07:10;2.87;;;2.20;;
46391;SDS011;32098;49.448;7.904;2024-03-02T02:09:37;3.53;;;2.93;;
46391;SDS011;32098;49.448;7.904;2024-03-02T02:12:03;4.73;;;3.10;;
46391;SDS011;32098;49.448;7.904;2024-03-02T02:14:33;3.23;;;2.50;;
46391;SDS011;32098;49.448;7.904;2024-03-02T02:17:00;3.10;;;2.40;;
46391;SDS011;32098;49.448;7.904;2024-03-02T02:19:26;4.20;;;2.90;;
46391;SDS011;32098;49.448;7.904;2024-03-02T02:21:53;2.97;;;2.50;;
46391;SDS011;32098;49.448;7.904;2024-03-02T02:24:20;4.70;;;2.80;;
46391;SDS011;32098;49.448;7.904;2024-03-02T02:26:46;3.57;;;2.80;;
46391;SDS011;32098;49.448;7.904;2024-03-02T02:29:13;2.93;;;2.63;;
46391;SDS011;32098;49.448;7.904;2024-03-02T02:31:40;3.53;;;2.83;;
46391;SDS011;32098;49.448;7.904;2024-03-02T02:34:08;4.97;;;2.93;;
46391;SDS011;32098;49.448;7.904;2024-03-02T02:36:37;5.23;;;3.33;;
46391;SDS011;32098;49.448;7.904;2024-03-02T02:39:06;4.73;;;3.30;;
46391;SDS011;32098;49.448;7.904;2024-03-02T02:41:37;3.70;;;3.03;;
46391;SDS011;32098;49.448;7.904;2024-03-02T02:44:04;4.63;;;3.20;;
46391;SDS011;32098;49.448;7.904;2024-03-02T02:46:31;4.30;;;3.40;;
46391;SDS011;32098;49.448;7.904;2024-03-02T02:48:58;4.37;;;3.07;;
46391;SDS011;32098;49.448;7.904;2024-03-02T02:51:24;4.13;;;3.20;;
46391;SDS011;32098;49.448;7.904;2024-03-02T02:53:54;4.13;;;3.03;;
46391;SDS011;32098;49.448;7.904;2024-03-02T02:56:21;6.77;;;3.20;;
46391;SDS011;32098;49.448;7.904;2024-03-02T02:58:47;6.07;;;3.40;;
46391;SDS011;32098;49.448;7.904;2024-03-02T03:01:17;4.80;;;3.37;;
46391;SDS011;32098;49.448;7.904;2024-03-02T03:03:47;5.17;;;3.30;;
46391;SDS011;32098;49.448;7.904;2024-03-02T03:06:14;4.63;;;3.33;;
46391;SDS011;32098;49.448;7.904;2024-03-02T03:08:40;5.50;;;3.20;;
46391;SDS011;32098;49.448;7.904;2024-03-02T03:11:07;3.80;;;3.07;;
46391;SDS011;32098;49.448;7.904;2024-03-02T03:13:34;4.07;;;3.33;;
46391;SDS011;32098;49.448;7.904;2024-03-02T03:16:01;2.90;;;2.57;;
46391;SDS011;32098;49.448;7.904;2024-03-02T03:18:27;3.43;;;2.67;;
46391;SDS011;32098;49.448;7.904;2024-03-02T03:20:54;3.67;;;2.70;;
46391;SDS011;32098;49.448;7.904;2024-03-02T03:23:21;2.53;;;2.30;;
46391;SDS011;32098;49.448;7.904;2024-03-02T03:25:48;4.87;;;2.97;;
46391;SDS011;32098;49.448;7.904;2024-03-02T03:28:14;3.93;;;2.80;;
46391;SDS011;32098;49.448;7.904;2024-03-02T03:30:41;3.70;;;2.50;;
46391;SDS011;32098;49.448;7.904;2024-03-02T03:33:09;3.60;;;2.80;;
46391;SDS011;32098;49.448;7.904;2024-03-02T03:35:36;2.93;;;2.60;;
46391;SDS011;32098;49.448;7.904;2024-03-02T03:38:03;3.63;;;2.90;;
46391;SDS011;32098;49.448;7.904;2024-03-02T03:40:30;3.90;;;2.80;;
46391;SDS011;32098;49.448;7.904;2024-03-02T03:42:56;4.10;;;3.00;;
46391;SDS011;32098;49.448;7.904;2024-03-02T03:45:24;4.37;;;3.00;;
46391;SDS011;32098;49.448;7.904;2024-03-02T03:47:53;5.27;;;3.03;;
46391;SDS011;32098;49.448;7.904;2024-03-02T03:50:20;4.83;;;3.20;;
46391;SDS011;32098;49.448;7.904;2024-03-02T03:52:46;3.30;;;2.73;;
46391;SDS011;32098;49.448;7.904;2024-03-02T03:55:13;4.73;;;3.43;;
46391;SDS011;32098;49.448;7.904;2024-03-02T03:57:40;5.23;;;3.10;;
46391;SDS011;32098;49.448;7.904;2024-03-02T04:00:07;4.40;;;3.23;;
46391;SDS011;32098;49.448;7.904;2024-03-02T04:02:39;3.70;;;2.60;;
46391;SDS011;32098;49.448;7.904;2024-03-02T04:05:06;3.73;;;2.90;;
46391;SDS011;32098;49.448;7.904;2024-03-02T04:07:37;4.13;;;3.10;;
46391;SDS011;32098;49.448;7.904;2024-03-02T04:10:08;4.17;;;3.40;;
46391;SDS011;32098;49.448;7.904;2024-03-02T04:12:36;5.43;;;3.40;;
46391;SDS011;32098;49.448;7.904;2024-03-02T04:15:04;5.37;;;3.00;;
46391;SDS011;32098;49.448;7.904;2024-03-02T04:17:32;3.30;;;2.77;;
46391;SDS011;32098;49.448;7.904;2024-03-02T04:20:00;3.53;;;2.87;;
46391;SDS011;32098;49.448;7.904;2024-03-02T04:22:27;4.97;;;3.20;;
46391;SDS011;32098;49.448;7.904;2024-03-02T04:24:54;4.33;;;3.20;;
46391;SDS011;32098;49.448;7.904;2024-03-02T04:27:21;4.80;;;3.50;;
46391;SDS011;32098;49.448;7.904;2024-03-02T04:29:48;3.67;;;3.20;;
46391;SDS011;32098;49.448;7.904;2024-03-02T04:32:14;3.50;;;3.10;;
46391;SDS011;32098;49.448;7.904;2024-03-02T04:34:41;3.63;;;3.00;;
46391;SDS011;32098;49.448;7.904;2024-03-02T04:37:09;6.13;;;3.47;;
46391;SDS011;32098;49.448;7.904;2024-03-02T04:39:38;4.53;;;3.40;;
46391;SDS011;32098;49.448;7.904;2024-03-02T04:42:05;5.07;;;3.27;;
46391;SDS011;32098;49.448;7.904;2024-03-02T04:44:32;3.50;;;3.17;;
46391;SDS011;32098;49.448;7.904;2024-03-02T04:46:59;4.33;;;3.60;;
46391;SDS011;32098;49.448;7.904;2024-03-02T04:49:25;4.00;;;3.20;;
46391;SDS011;32098;49.448;7.904;2024-03-02T04:51:52;3.80;;;3.00;;
46391;SDS011;32098;49.448;7.904;2024-03-02T04:54:19;4.07;;;2.80;;
46391;SDS011;32098;49.448;7.904;2024-03-02T04:56:46;4.63;;;3.20;;
46391;SDS011;32098;49.448;7.904;2024-03-02T04:59:16;3.70;;;2.57;;
46391;SDS011;32098;49.448;7.904;2024-03-02T05:01:44;3.63;;;3.17;;
46391;SDS011;32098;49.448;7.904;2024-03-02T05:04:11;3.37;;;2.60;;
46391;SDS011;32098;49.448;7.904;2024-03-02T05:06:38;3.53;;;2.70;;
46391;SDS011;32098;49.448;7.904;2024-03-02T05:09:09;4.63;;;2.77;;
46391;SDS011;32098;49.448;7.904;2024-03-02T05:11:36;3.00;;;2.60;;
46391;SDS011;32098;49.448;7.904;2024-03-02T05:14:05;4.53;;;2.67;;
46391;SDS011;32098;49.448;7.904;2024-03-02T05:16:33;3.33;;;2.60;;
46391;SDS011;32098;49.448;7.904;2024-03-02T05:19:06;4.30;;;2.60;;
46391;SDS011;32098;49.448;7.904;2024-03-02T05:21:33;4.83;;;2.80;;
46391;SDS011;32098;49.448;7.904;2024-03-02T05:24:00;3.07;;;2.70;;
46391;SDS011;32098;49.448;7.904;2024-03-02T05:26:27;3.07;;;2.50;;
46391;SDS011;32098;49.448;7.904;2024-03-02T05:28:54;2.60;;;2.37;;
46391;SDS011;32098;49.448;7.904;2024-03-02T05:31:20;3.87;;;2.63;;
46391;SDS011;32098;49.448;7.904;2024-03-02T05:33:47;3.90;;;2.40;;
46391;SDS011;32098;49.448;7.904;2024-03-02T05:36:15;3.63;;;2.50;;
46391;SDS011;32098;49.448;7.904;2024-03-02T05:38:42;3.60;;;2.63;;
46391;SDS011;32098;49.448;7.904;2024-03-02T05:41:09;3.07;;;2.50;;
46391;SDS011;32098;49.448;7.904;2024-03-02T05:43:35;3.17;;;2.33;;
46391;SDS011;32098;49.448;7.904;2024-03-02T05:46:02;3.17;;;2.70;;
46391;SDS011;32098;49.448;7.904;2024-03-02T05:48:31;3.00;;;2.50;;
46391;SDS011;32098;49.448;7.904;2024-03-02T05:50:58;3.03;;;2.47;;
46391;SDS011;32098;49.448;7.904;2024-03-02T05:53:25;3.33;;;2.73;;
46391;SDS011;32098;49.448;7.904;2024-03-02T05:55:51;3.23;;;2.40;;
46391;SDS011;32098;49.448;7.904;2024-03-02T05:58:22;2.73;;;2.30;;
46391;SDS011;32098;49.448;7.904;2024-03-02T06:01:00;4.77;;;2.63;;
46391;SDS011;32098;49.448;7.904;2024-03-02T06:03:26;3.23;;;2.37;;
46391;SDS011;32098;49.448;7.904;2024-03-02T06:05:54;4.13;;;2.60;;
46391;SDS011;32098;49.448;7.904;2024-03-02T06:08:21;3.27;;;2.60;;
46391;SDS011;32098;49.448;7.904;2024-03-02T06:10:48;4.13;;;2.57;;
46391;SDS011;32098;49.448;7.904;2024-03-02T06:13:15;4.20;;;2.70;;
46391;SDS011;32098;49.448;7.904;2024-03-02T06:15:42;3.67;;;2.57;;
46391;SDS011;32098;49.448;7.904;2024-03-02T06:18:09;4.50;;;2.40;;
46391;SDS011;32098;49.448;7.904;2024-03-02T06:20:35;4.07;;;2.50;;
46391;SDS011;32098;49.448;7.904;2024-03-02T06:23:03;4.80;;;2.80;;
46391;SDS011;32098;49.448;7.904;2024-03-02T06:25:30;4.50;;;2.90;;
46391;SDS011;32098;49.448;7.904;2024-03-02T06:27:57;4.00;;;2.43;;
46391;SDS011;32098;49.448;7.904;2024-03-02T06:30:23;3.17;;;2.80;;
46391;SDS011;32098;49.448;7.904;2024-03-02T06:32:50;3.63;;;2.50;;
46391;SDS011;32098;49.448;7.904;2024-03-02T06:35:17;3.40;;;2.53;;
46391;SDS011;32098;49.448;7.904;2024-03-02T06:37:43;4.20;;;2.30;;
46391;SDS011;32098;49.448;7.904;2024-03-02T06:40:10;3.63;;;2.63;;
46391;SDS011;32098;49.448;7.904;2024-03-02T06:42:37;4.23;;;2.90;;
46391;SDS011;32098;49.448;7.904;2024-03-02T06:45:03;4.53;;;3.10;;
46391;SDS011;32098;49.448;7.904;2024-03-02T06:47:30;4.23;;;2.77;;
46391;SDS011;32098;49.448;7.904;2024-03-02T06:49:57;4.27;;;2.83;;
46391;SDS011;32098;49.448;7.904;2024-03-02T06:52:25;3.63;;;2.53;;
46391;SDS011;32098;49.448;7.904;2024-03-02T06:54:51;3.43;;;2.93;;
46391;SDS011;32098;49.448;7.904;2024-03-02T06:57:18;4.63;;;2.17;;
46391;SDS011;32098;49.448;7.904;2024-03-02T06:59:47;3.73;;;2.50;;
46391;SDS011;32098;49.448;7.904;2024-03-02T07:02:16;5.70;;;2.60;;
46391;SDS011;32098;49.448;7.904;2024-03-02T07:04:43;3.43;;;2.83;;
46391;SDS011;32098;49.448;7.904;2024-03-02T07:07:11;2.97;;;2.30;;
46391;SDS011;32098;49.448;7.904;2024-03-02T07:09:38;3.63;;;2.60;;
46391;SDS011;32098;49.448;7.904;2024-03-02T07:12:04;2.63;;;2.20;;
46391;SDS011;32098;49.448;7.904;2024-03-02T07:14:31;2.97;;;2.20;;
46391;SDS011;32098;49.448;7.904;2024-03-02T07:17:24;3.67;;;2.20;;
46391;SDS011;32098;49.448;7.904;2024-03-02T07:19:51;3.43;;;2.20;;
46391;SDS011;32098;49.448;7.904;2024-03-02T07:22:18;3.13;;;2.30;;
46391;SDS011;32098;49.448;7.904;2024-03-02T07:24:44;3.70;;;2.40;;
46391;SDS011;32098;49.448;7.904;2024-03-02T07:27:14;4.00;;;2.13;;
46391;SDS011;32098;49.448;7.904;2024-03-02T07:29:42;4.67;;;2.30;;
46391;SDS011;32098;49.448;7.904;2024-03-02T07:32:09;4.23;;;2.10;;
46391;SDS011;32098;49.448;7.904;2024-03-02T07:34:37;2.97;;;2.03;;
46391;SDS011;32098;49.448;7.904;2024-03-02T07:37:06;2.93;;;2.00;;
46391;SDS011;32098;49.448;7.904;2024-03-02T07:39:33;2.40;;;1.80;;
46391;SDS011;32098;49.448;7.904;2024-03-02T07:42:00;3.10;;;1.77;;
46391;SDS011;32098;49.448;7.904;2024-03-02T07:44:26;3.43;;;1.50;;
46391;SDS011;32098;49.448;7.904;2024-03-02T07:46:53;2.50;;;1.60;;
46391;SDS011;32098;49.448;7.904;2024-03-02T07:49:20;1.77;;;1.50;;
46391;SDS011;32098;49.448;7.904;2024-03-02T07:51:47;3.07;;;1.87;;
46391;SDS011;32098;49.448;7.904;2024-03-02T07:54:14;2.10;;;1.90;;
46391;SDS011;32098;49.448;7.904;2024-03-02T07:56:40;2.60;;;1.60;;
46391;SDS011;32098;49.448;7.904;2024-03-02T07:59:07;2.27;;;1.80;;
46391;SDS011;32098;49.448;7.904;2024-03-02T08:01:34;2.87;;;1.73;;
46391;SDS011;32098;49.448;7.904;2024-03-02T08:04:01;2.03;;;1.77;;
46391;SDS011;32098;49.448;7.904;2024-03-02T08:06:30;2.10;;;1.50;;
46391;SDS011;32098;49.448;7.904;2024-03-02T08:09:00;2.93;;;1.63;;
46391;SDS011;32098;49.448;7.904;2024-03-02T08:11:27;2.60;;;1.70;;
46391;SDS011;32098;49.448;7.904;2024-03-02T08:13:55;2.77;;;1.83;;
46391;SDS011;32098;49.448;7.904;2024-03-02T08:16:24;2.07;;;1.80;;
46391;SDS011;32098;49.448;7.904;2024-03-02T08:18:51;3.13;;;1.57;;
46391;SDS011;32098;49.448;7.904;2024-03-02T08:21:19;1.77;;;1.40;;
46391;SDS011;32098;49.448;7.904;2024-03-02T08:23:46;2.67;;;1.50;;
46391;SDS011;32098;49.448;7.904;2024-03-02T08:26:12;3.50;;;1.50;;
46391;SDS011;32098;49.448;7.904;2024-03-02T08:28:39;2.20;;;1.80;;
46391;SDS011;32098;49.448;7.904;2024-03-02T08:31:09;1.90;;;1.63;;
46391;SDS011;32098;49.448;7.904;2024-03-02T08:33:36;2.83;;;1.73;;
46391;SDS011;32098;49.448;7.904;2024-03-02T08:36:04;2.97;;;1.70;;
46391;SDS011;32098;49.448;7.904;2024-03-02T08:38:31;4.67;;;1.60;;
46391;SDS011;32098;49.448;7.904;2024-03-02T08:40:59;1.97;;;1.77;;
46391;SDS011;32098;49.448;7.904;2024-03-02T08:43:26;4.03;;;1.60;;
46391;SDS011;32098;49.448;7.904;2024-03-02T08:45:53;3.03;;;1.60;;
46391;SDS011;32098;49.448;7.904;2024-03-02T08:48:19;1.53;;;1.30;;
46391;SDS011;32098;49.448;7.904;2024-03-02T08:50:47;1.90;;;1.43;;
46391;SDS011;32098;49.448;7.904;2024-03-02T08:53:14;3.03;;;2.00;;
46391;SDS011;32098;49.448;7.904;2024-03-02T08:55:47;2.93;;;2.10;;
46391;SDS011;32098;49.448;7.904;2024-03-02T08:58:14;2.90;;;1.60;;
46391;SDS011;32098;49.448;7.904;2024-03-02T09:00:40;3.73;;;1.50;;
46391;SDS011;32098;49.448;7.904;2024-03-02T09:03:08;3.07;;;2.37;;
46391;SDS011;32098;49.448;7.904;2024-03-02T09:05:34;1.93;;;1.50;;
46391;SDS011;32098;49.448;7.904;2024-03-02T09:08:01;2.07;;;1.43;;
46391;SDS011;32098;49.448;7.904;2024-03-02T09:10:29;1.67;;;1.30;;
46391;SDS011;32098;49.448;7.904;2024-03-02T09:12:56;1.53;;;1.13;;
46391;SDS011;32098;49.448;7.904;2024-03-02T09:15:23;3.33;;;1.20;;
46391;SDS011;32098;49.448;7.904;2024-03-02T09:17:50;1.43;;;1.23;;
46391;SDS011;32098;49.448;7.904;2024-03-02T09:20:16;3.00;;;1.20;;
46391;SDS011;32098;49.448;7.904;2024-03-02T09:22:43;1.47;;;1.10;;
46391;SDS011;32098;49.448;7.904;2024-03-02T09:25:09;1.53;;;1.20;;
46391;SDS011;32098;49.448;7.904;2024-03-02T09:27:37;1.30;;;1.10;;
46391;SDS011;32098;49.448;7.904;2024-03-02T09:30:08;2.20;;;1.10;;
46391;SDS011;32098;49.448;7.904;2024-03-02T09:32:36;0.93;;;0.90;;
46391;SDS011;32098;49.448;7.904;2024-03-02T09:35:04;1.33;;;1.00;;
46391;SDS011;32098;49.448;7.904;2024-03-02T09:37:31;1.43;;;1.10;;
46391;SDS011;32098;49.448;7.904;2024-03-02T09:39:57;1.47;;;0.97;;
46391;SDS011;32098;49.448;7.904;2024-03-02T09:42:24;1.10;;;1.00;;
46391;SDS011;32098;49.448;7.904;2024-03-02T09:44:52;1.17;;;0.93;;
46391;SDS011;32098;49.448;7.904;2024-03-02T09:47:19;1.30;;;1.20;;
46391;SDS011;32098;49.448;7.904;2024-03-02T09:49:46;1.47;;;1.00;;
46391;SDS011;32098;49.448;7.904;2024-03-02T09:52:14;1.20;;;0.90;;
46391;SDS011;32098;49.448;7.904;2024-03-02T09:54:41;0.97;;;0.87;;
46391;SDS011;32098;49.448;7.904;2024-03-02T09:57:08;1.20;;;1.10;;
46391;SDS011;32098;49.448;7.904;2024-03-02T09:59:35;1.90;;;1.10;;
46391;SDS011;32098;49.448;7.904;2024-03-02T10:02:02;1.10;;;1.00;;
46391;SDS011;32098;49.448;7.904;2024-03-02T10:04:29;1.20;;;1.10;;
46391;SDS011;32098;49.448;7.904;2024-03-02T10:07:17;1.00;;;0.90;;
46391;SDS011;32098;49.448;7.904;2024-03-02T10:09:45;1.40;;;0.97;;
46391;SDS011;32098;49.448;7.904;2024-03-02T10:12:14;0.97;;;0.87;;
46391;SDS011;32098;49.448;7.904;2024-03-02T10:14:42;1.87;;;1.20;;
46391;SDS011;32098;49.448;7.904;2024-03-02T10:17:11;1.13;;;1.03;;
46391;SDS011;32098;49.448;7.904;2024-03-02T10:19:39;3.50;;;0.80;;
46391;SDS011;32098;49.448;7.904;2024-03-02T10:22:07;1.03;;;0.90;;
46391;SDS011;32098;49.448;7.904;2024-03-02T10:24:39;1.87;;;0.90;;
46391;SDS011;32098;49.448;7.904;2024-03-02T10:27:08;1.67;;;0.80;;
46391;SDS011;32098;49.448;7.904;2024-03-02T10:29:47;0.80;;;0.80;;
46391;SDS011;32098;49.448;7.904;2024-03-02T10:32:15;1.10;;;1.00;;
46391;SDS011;32098;49.448;7.904;2024-03-02T10:34:42;1.07;;;0.97;;
46391;SDS011;32098;49.448;7.904;2024-03-02T10:37:11;1.93;;;0.73;;
46391;SDS011;32098;49.448;7.904;2024-03-02T10:39:39;0.80;;;0.60;;
46391;SDS011;32098;49.448;7.904;2024-03-02T10:42:07;1.73;;;0.70;;
46391;SDS011;32098;49.448;7.904;2024-03-02T10:44:34;0.73;;;0.70;;
46391;SDS011;32098;49.448;7.904;2024-03-02T10:47:04;1.13;;;0.70;;
46391;SDS011;32098;49.448;7.904;2024-03-02T10:49:32;1.10;;;0.93;;
46391;SDS011;32098;49.448;7.904;2024-03-02T10:51:59;0.80;;;0.80;;
46391;SDS011;32098;49.448;7.904;2024-03-02T10:54:27;0.70;;;0.70;;
46391;SDS011;32098;49.448;7.904;2024-03-02T10:56:59;1.50;;;1.20;;
46391;SDS011;32098;49.448;7.904;2024-03-02T10:59:33;0.87;;;0.70;;
46391;SDS011;32098;49.448;7.904;2024-03-02T11:02:01;1.30;;;0.80;;
46391;SDS011;32098;49.448;7.904;2024-03-02T11:04:32;1.07;;;0.60;;
46391;SDS011;32098;49.448;7.904;2024-03-02T11:07:00;0.90;;;0.70;;
46391;SDS011;32098;49.448;7.904;2024-03-02T11:09:31;0.57;;;0.50;;
46391;SDS011;32098;49.448;7.904;2024-03-02T11:12:05;1.77;;;1.10;;
46391;SDS011;32098;49.448;7.904;2024-03-02T11:14:42;1.67;;;0.83;;
46391;SDS011;32098;49.448;7.904;2024-03-02T11:17:11;1.70;;;1.00;;
46391;SDS011;32098;49.448;7.904;2024-03-02T11:19:42;1.03;;;0.70;;
46391;SDS011;32098;49.448;7.904;2024-03-02T11:22:10;0.90;;;0.70;;
46391;SDS011;32098;49.448;7.904;2024-03-02T11:24:38;0.77;;;0.67;;
46391;SDS011;32098;49.448;7.904;2024-03-02T11:27:05;1.20;;;0.90;;
46391;SDS011;32098;49.448;7.904;2024-03-02T11:32:19;0.83;;;0.50;;
46391;SDS011;32098;49.448;7.904;2024-03-02T11:34:48;0.50;;;0.50;;
46391;SDS011;32098;49.448;7.904;2024-03-02T11:37:17;0.90;;;0.60;;
46391;SDS011;32098;49.448;7.904;2024-03-02T11:39:49;0.65;;;0.63;;
46391;SDS011;32098;49.448;7.904;2024-03-02T11:42:17;0.95;;;0.68;;
46391;SDS011;32098;49.448;7.904;2024-03-02T11:44:45;0.55;;;0.50;;
46391;SDS011;32098;49.448;7.904;2024-03-02T11:47:13;0.95;;;0.70;;
46391;SDS011;32098;49.448;7.904;2024-03-02T11:52:12;0.93;;;0.50;;
46391;SDS011;32098;49.448;7.904;2024-03-02T11:54:42;0.60;;;0.38;;
46391;SDS011;32098;49.448;7.904;2024-03-02T11:57:13;0.63;;;0.60;;
46391;SDS011;32098;49.448;7.904;2024-03-02T11:59:42;0.77;;;0.32;;
46391;SDS011;32098;49.448;7.904;2024-03-02T12:02:16;0.83;;;0.50;;
46391;SDS011;32098;49.448;7.904;2024-03-02T12:04:45;0.55;;;0.50;;
46391;SDS011;32098;49.448;7.904;2024-03-02T12:07:18;0.82;;;0.50;;
46391;SDS011;32098;49.448;7.904;2024-03-02T12:09:47;1.13;;;0.52;;
46391;SDS011;32098;49.448;7.904;2024-03-02T12:12:14;0.50;;;0.50;;
46391;SDS011;32098;49.448;7.904;2024-03-02T12:14:50;0.43;;;0.43;;
46391;SDS011;32098;49.448;7.904;2024-03-02T12:17:19;0.80;;;0.43;;
46391;SDS011;32098;49.448;7.904;2024-03-02T12:19:45;0.60;;;0.60;;
46391;SDS011;32098;49.448;7.904;2024-03-02T12:22:12;0.37;;;0.30;;
46391;SDS011;32098;49.448;7.904;2024-03-02T12:24:39;0.23;;;0.23;;
46391;SDS011;32098;49.448;7.904;2024-03-02T12:27:06;0.30;;;0.30;;
46391;SDS011;32098;49.448;7.904;2024-03-02T12:29:33;0.70;;;0.50;;
46391;SDS011;32098;49.448;7.904;2024-03-02T12:32:00;0.50;;;0.50;;
46391;SDS011;32098;49.448;7.904;2024-03-02T12:34:28;0.47;;;0.40;;
46391;SDS011;32098;49.448;7.904;2024-03-02T12:36:55;0.38;;;0.38;;
46391;SDS011;32098;49.448;7.904;2024-03-02T12:39:22;1.55;;;0.30;;
46391;SDS011;32098;49.448;7.904;2024-03-02T12:41:50;0.30;;;0.30;;
46391;SDS011;32098;49.448;7.904;2024-03-02T12:44:17;0.93;;;0.40;;
46391;SDS011;32098;49.448;7.904;2024-03-02T12:46:44;0.40;;;0.40;;
46391;SDS011;32098;49.448;7.904;2024-03-02T12:49:13;1.05;;;0.20;;
46391;SDS011;32098;49.448;7.904;2024-03-02T12:51:44;0.38;;;0.20;;
46391;SDS011;32098;49.448;7.904;2024-03-02T12:54:18;0.83;;;0.40;;
46391;SDS011;32098;49.448;7.904;2024-03-02T12:56:48;0.28;;;0.22;;
46391;SDS011;32098;49.448;7.904;2024-03-02T12:59:18;0.93;;;0.30;;
46391;SDS011;32098;49.448;7.904;2024-03-02T13:01:53;0.30;;;0.30;;
46391;SDS011;32098;49.448;7.904;2024-03-02T13:04:21;0.60;;;0.20;;
46391;SDS011;32098;49.448;7.904;2024-03-02T13:06:50;1.17;;;0.30;;
46391;SDS011;32098;49.448;7.904;2024-03-02T13:09:18;0.57;;;0.30;;
46391;SDS011;32098;49.448;7.904;2024-03-02T13:11:44;0.68;;;0.30;;
46391;SDS011;32098;49.448;7.904;2024-03-02T13:14:11;0.45;;;0.30;;
46391;SDS011;32098;49.448;7.904;2024-03-02T13:16:38;0.28;;;0.28;;
46391;SDS011;32098;49.448;7.904;2024-03-02T13:19:13;0.63;;;0.40;;
46391;SDS011;32098;49.448;7.904;2024-03-02T13:21:40;0.65;;;0.20;;
46391;SDS011;32098;49.448;7.904;2024-03-02T13:24:06;0.43;;;0.30;;
46391;SDS011;32098;49.448;7.904;2024-03-02T13:26:33;0.20;;;0.20;;
46391;SDS011;32098;49.448;7.904;2024-03-02T13:29:00;0.40;;;0.33;;
46391;SDS011;32098;49.448;7.904;2024-03-02T13:31:27;0.20;;;0.20;;
46391;SDS011;32098;49.448;7.904;2024-03-02T13:33:53;0.30;;;0.30;;
46391;SDS011;32098;49.448;7.904;2024-03-02T13:36:20;0.65;;;0.30;;
46391;SDS011;32098;49.448;7.904;2024-03-02T13:38:46;0.55;;;0.40;;
46391;SDS011;32098;49.448;7.904;2024-03-02T13:41:13;1.35;;;0.32;;
46391;SDS011;32098;49.448;7.904;2024-03-02T13:43:40;0.38;;;0.30;;
46391;SDS011;32098;49.448;7.904;2024-03-02T13:46:06;0.30;;;0.30;;
46391;SDS011;32098;49.448;7.904;2024-03-02T13:48:33;0.52;;;0.20;;
46391;SDS011;32098;49.448;7.904;2024-03-02T13:50:59;0.40;;;0.22;;
46391;SDS011;32098;49.448;7.904;2024-03-02T13:53:26;0.20;;;0.20;;
46391;SDS011;32098;49.448;7.904;2024-03-02T13:55:53;0.30;;;0.20;;
46391;SDS011;32098;49.448;7.904;2024-03-02T13:58:20;0.73;;;0.30;;
46391;SDS011;32098;49.448;7.904;2024-03-02T14:00:47;0.40;;;0.40;;
46391;SDS011;32098;49.448;7.904;2024-03-02T14:03:13;0.65;;;0.47;;
46391;SDS011;32098;49.448;7.904;2024-03-02T14:05:40;0.40;;;0.40;;
46391;SDS011;32098;49.448;7.904;2024-03-02T14:08:07;0.32;;;0.30;;
46391;SDS011;32098;49.448;7.904;2024-03-02T14:10:34;1.05;;;0.50;;
46391;SDS011;32098;49.448;7.904;2024-03-02T14:13:01;0.83;;;0.40;;
46391;SDS011;32098;49.448;7.904;2024-03-02T14:15:28;0.30;;;0.30;;
46391;SDS011;32098;49.448;7.904;2024-03-02T14:17:56;0.57;;;0.50;;
46391;SDS011;32098;49.448;7.904;2024-03-02T14:20:23;0.77;;;0.60;;
46391;SDS011;32098;49.448;7.904;2024-03-02T14:22:49;2.13;;;0.60;;
46391;SDS011;32098;49.448;7.904;2024-03-02T14:25:16;0.63;;;0.60;;
46391;SDS011;32098;49.448;7.904;2024-03-02T14:27:43;0.90;;;0.50;;
46391;SDS011;32098;49.448;7.904;2024-03-02T14:30:15;0.57;;;0.57;;
46391;SDS011;32098;49.448;7.904;2024-03-02T14:32:42;1.00;;;0.90;;
46391;SDS011;32098;49.448;7.904;2024-03-02T14:35:08;0.90;;;0.90;;
46391;SDS011;32098;49.448;7.904;2024-03-02T14:37:36;1.33;;;1.03;;
46391;SDS011;32098;49.448;7.904;2024-03-02T14:40:03;1.60;;;0.80;;
46391;SDS011;32098;49.448;7.904;2024-03-02T14:42:32;1.88;;;0.75;;
46391;SDS011;32098;49.448;7.904;2024-03-02T14:44:59;1.00;;;0.90;;
46391;SDS011;32098;49.448;7.904;2024-03-02T14:47:29;0.77;;;0.70;;
46391;SDS011;32098;49.448;7.904;2024-03-02T14:49:56;1.10;;;0.88;;
46391;SDS011;32098;49.448;7.904;2024-03-02T14:52:23;2.30;;;0.90;;
46391;SDS011;32098;49.448;7.904;2024-03-02T14:54:49;1.75;;;1.08;;
46391;SDS011;32098;49.448;7.904;2024-03-02T14:57:17;3.05;;;1.55;;
46391;SDS011;32098;49.448;7.904;2024-03-02T14:59:43;1.50;;;1.03;;